createdAt,value
2023-05-22T00:00:21.458Z,0
2023-05-22T00:05:40.648Z,0
2023-05-22T00:16:19.792Z,0
2023-05-22T00:26:58.282Z,0
2023-05-22T00:32:16.470Z,0
2023-05-22T00:37:35.211Z,0
2023-05-22T00:42:54.503Z,0
2023-05-22T00:48:13.442Z,0
2023-05-22T00:53:32.719Z,0
2023-05-22T00:58:52.169Z,0
2023-05-22T01:04:10.985Z,0
2023-05-22T01:09:30.053Z,0
2023-05-22T01:14:49.128Z,0
2023-05-22T01:20:08.329Z,0
2023-05-22T01:25:27.185Z,0
2023-05-22T01:30:46.032Z,0
2023-05-22T01:36:05.139Z,0
2023-05-22T01:41:24.783Z,0
2023-05-22T01:46:43.803Z,0
2023-05-22T01:52:02.550Z,0
2023-05-22T01:57:21.810Z,0
2023-05-22T02:02:41.190Z,0
2023-05-22T02:08:01.309Z,0
2023-05-22T02:13:20.414Z,0
2023-05-22T02:18:39.829Z,0
2023-05-22T02:23:58.930Z,0
2023-05-22T02:29:18.190Z,0
2023-05-22T02:39:56.010Z,0
2023-05-22T02:45:14.853Z,0
2023-05-22T02:50:34.500Z,0
2023-05-22T02:55:53.733Z,0
2023-05-22T03:01:12.818Z,0
2023-05-22T03:06:31.827Z,0
2023-05-22T03:11:50.749Z,0
2023-05-22T03:17:09.779Z,1
2023-05-22T03:22:28.648Z,6
2023-05-22T03:33:07.421Z,21.34
2023-05-22T03:38:25.621Z,23.82
2023-05-22T03:43:45.098Z,28.29
2023-05-22T03:49:03.571Z,32.33
2023-05-22T03:54:22.978Z,37.16
2023-05-22T03:59:42.504Z,43.31
2023-05-22T04:05:02.488Z,48.46
2023-05-22T04:10:21.743Z,56.15
2023-05-22T04:15:41.330Z,64.31
2023-05-22T04:21:00.703Z,72.46
2023-05-22T04:26:20.401Z,76.39
2023-05-22T04:31:39.408Z,81.31
2023-05-22T04:36:58.203Z,87.7
2023-05-22T04:42:17.290Z,91.85
2023-05-22T04:47:36.343Z,102.04
2023-05-22T04:52:55.288Z,124.23
2023-05-22T05:03:33.955Z,110.69
2023-05-22T05:08:53.109Z,152.44
2023-05-22T05:14:12.071Z,204.27
2023-05-22T05:19:31.054Z,217.31
2023-05-22T05:24:50.179Z,221.01
2023-05-22T05:30:08.898Z,239.35
2023-05-22T05:35:27.678Z,249.13
2023-05-22T05:40:46.538Z,253.84
2023-05-22T05:46:05.881Z,341.53
2023-05-22T05:51:24.756Z,362.55
2023-05-22T05:56:44.259Z,311.02
2023-05-22T06:02:04.564Z,219.58
2023-05-22T06:07:23.352Z,198.65
2023-05-22T06:12:42.481Z,182.36
2023-05-22T06:18:02.113Z,174.56
2023-05-22T06:23:21.038Z,175.57
2023-05-22T06:28:40.429Z,177.14
2023-05-22T06:34:00.044Z,174.79
2023-05-22T06:39:19.681Z,173.91
2023-05-22T06:44:38.399Z,173.11
2023-05-22T06:49:57.519Z,175.24
2023-05-22T06:55:16.960Z,177.58
2023-05-22T07:05:55.069Z,183.4
2023-05-22T07:11:13.932Z,184.2
2023-05-22T07:16:33.280Z,195.15
2023-05-22T07:21:51.281Z,469.96
2023-05-22T07:27:10.164Z,336.48
2023-05-22T07:32:29.515Z,375.77
2023-05-22T07:37:48.605Z,295.25
2023-05-22T07:43:08.222Z,329.31
2023-05-22T07:48:27.332Z,503.44
2023-05-22T07:53:46.895Z,537.88
2023-05-22T07:59:05.543Z,216.45
2023-05-22T08:04:24.907Z,129.89
2023-05-22T08:15:04.580Z,342.39
2023-05-22T08:20:23.986Z,476.96
2023-05-22T08:25:43.023Z,509.86
2023-05-22T08:31:01.765Z,575.12
2023-05-22T08:36:20.514Z,494.42
2023-05-22T08:41:39.531Z,494.33
2023-05-22T08:46:58.461Z,544.7
2023-05-22T08:52:17.527Z,470.52
2023-05-22T08:57:36.447Z,577.58
2023-05-22T09:02:55.722Z,62.71
2023-05-22T09:08:20.215Z,288.67
2023-05-22T09:13:34.611Z,215.9
2023-05-22T09:18:53.882Z,632.46
2023-05-22T09:24:13.283Z,408.55
2023-05-22T09:29:32.542Z,620.23
2023-05-22T09:34:52.120Z,477.77
2023-05-22T09:40:11.509Z,240.69
2023-05-22T09:45:30.651Z,429.65
2023-05-22T09:50:49.379Z,9.8
2023-05-22T09:56:07.104Z,44.02
2023-05-22T10:01:25.904Z,620.19
2023-05-22T10:06:45.419Z,572.89
2023-05-22T10:12:04.503Z,124.27
2023-05-22T10:17:24.050Z,69.82
2023-05-22T10:22:42.854Z,523.25
2023-05-22T10:28:01.594Z,530.75
2023-05-22T10:33:21.070Z,144.7
2023-05-22T10:38:40.469Z,392.63
2023-05-22T10:44:00.043Z,122.15
2023-05-22T10:49:19.415Z,83.93
2023-05-22T10:54:38.844Z,102.56
2023-05-22T10:59:57.787Z,110.24
2023-05-22T11:05:16.331Z,176.53
2023-05-22T11:10:35.576Z,409.41
2023-05-22T11:15:54.872Z,85.83
2023-05-22T11:21:13.901Z,336.33
2023-05-22T11:26:33.331Z,191.29
2023-05-22T11:31:52.012Z,156.2
2023-05-22T11:42:30.068Z,22.08
2023-05-22T11:47:49.472Z,306.49
2023-05-22T11:53:08.191Z,14.62
2023-05-22T11:58:28.294Z,637.81
2023-05-22T12:03:47.866Z,196.85
2023-05-22T12:09:07.058Z,88.63
2023-05-22T12:14:25.950Z,210.12
2023-05-22T12:25:12.088Z,165.04
2023-05-22T12:30:22.809Z,85.02
2023-05-22T12:36:56.968Z,33.69
2023-05-22T12:46:21.071Z,112.96
2023-05-22T12:51:40.465Z,403.46
2023-05-22T12:56:58.235Z,320.49
2023-05-22T13:02:17.632Z,218.91
2023-05-22T13:07:36.682Z,297.67
2023-05-22T13:12:56.055Z,390.85
2023-05-22T13:18:14.742Z,213.92
2023-05-22T13:28:53.742Z,619.97
2023-05-22T13:34:13.413Z,199.98
2023-05-22T13:39:32.780Z,15.73
2023-05-22T13:44:50.794Z,164.4
2023-05-22T13:50:09.779Z,625.94
2023-05-22T13:55:29.291Z,229.03
2023-05-22T14:00:48.015Z,305.23
2023-05-22T14:06:07.740Z,365.57
2023-05-22T14:12:41.906Z,132.86
2023-05-22T14:16:46.838Z,106.79
2023-05-22T14:27:25.096Z,141.99
2023-05-22T14:32:44.310Z,264.41
2023-05-22T14:38:03.008Z,261.23
2023-05-22T14:43:22.520Z,616.33
2023-05-22T14:48:41.826Z,314.66
2023-05-22T14:54:00.936Z,231.16
2023-05-22T14:59:28.307Z,182.88
2023-05-22T15:09:57.874Z,92.76
2023-05-22T15:15:17.485Z,491.12
2023-05-22T15:20:36.194Z,477.35
2023-05-22T15:25:55.759Z,606.77
2023-05-22T15:31:14.620Z,484.1
2023-05-22T15:42:02.739Z,379.42
2023-05-22T15:47:12.817Z,481.5
2023-05-22T15:57:50.858Z,473.98
2023-05-22T16:08:29.933Z,435.68
2023-05-22T16:13:49.031Z,435.62
2023-05-22T16:19:08.361Z,452.47
2023-05-22T16:24:27.797Z,419.94
2023-05-22T16:29:46.549Z,197.67
2023-05-22T16:40:24.313Z,144.88
2023-05-22T16:45:43.632Z,139.08
2023-05-22T16:51:28.114Z,134.62
2023-05-22T16:56:46.966Z,126.6
2023-05-22T17:02:06.648Z,112.59
2023-05-22T17:07:25.917Z,106.28
2023-05-22T17:12:45.542Z,93.75
2023-05-22T17:18:04.923Z,91.35
2023-05-22T17:23:23.609Z,88.44
2023-05-22T17:28:42.824Z,89.5
2023-05-22T17:34:02.415Z,87.61
2023-05-22T17:39:21.319Z,80.46
2023-05-22T17:44:40.724Z,65.52
2023-05-22T17:55:18.971Z,50.99
2023-05-22T18:00:38.504Z,47.97
2023-05-22T18:05:57.236Z,46.17
2023-05-22T18:11:16.776Z,44.17
2023-05-22T18:16:36.421Z,39.04
2023-05-22T18:21:55.179Z,37.57
2023-05-22T18:27:14.831Z,32.65
2023-05-22T18:32:34.494Z,29.43
2023-05-22T18:37:53.411Z,30.75
2023-05-22T18:43:21.187Z,28.74
2023-05-22T18:48:31.130Z,24.73
2023-05-22T18:53:50.500Z,23.82
2023-05-22T18:59:09.930Z,21.24
2023-05-22T19:04:28.971Z,16.78
2023-05-22T19:15:07.352Z,4
2023-05-22T19:20:26.473Z,0
2023-05-22T19:31:04.357Z,0
2023-05-22T19:36:23.045Z,0
2023-05-22T19:41:42.108Z,0
2023-05-22T19:47:01.283Z,0
2023-05-22T19:52:20.350Z,0
2023-05-22T19:57:39.627Z,0
2023-05-22T20:02:58.582Z,0
2023-05-22T20:08:17.439Z,0
2023-05-22T20:13:36.652Z,0
2023-05-22T20:18:56.159Z,0
2023-05-22T20:24:15.416Z,0
2023-05-22T20:29:34.284Z,0
2023-05-22T20:34:53.900Z,0
2023-05-22T20:40:12.739Z,0
2023-05-22T20:45:31.995Z,0
2023-05-22T20:50:51.043Z,0
2023-05-22T20:56:10.678Z,0
2023-05-22T21:01:30.087Z,0
2023-05-22T21:06:48.817Z,0
2023-05-22T21:12:08.517Z,0
2023-05-22T21:17:27.384Z,0
2023-05-22T21:22:46.361Z,0
2023-05-22T21:28:05.151Z,0
2023-05-22T21:33:24.450Z,0
2023-05-22T21:38:43.606Z,0
2023-05-22T21:44:02.317Z,0
2023-05-22T21:49:21.601Z,0
2023-05-22T21:54:41.140Z,0
2023-05-22T22:00:00.408Z,0
2023-05-22T22:05:19.719Z,0
2023-05-22T22:10:38.798Z,0
2023-05-22T22:15:57.544Z,0
2023-05-22T22:21:16.518Z,0
2023-05-22T22:26:35.368Z,0
2023-05-22T22:37:13.847Z,0
2023-05-22T22:42:33.198Z,0
2023-05-22T22:47:52.099Z,0
2023-05-22T22:53:11.413Z,0
2023-05-22T23:03:49.275Z,0
2023-05-22T23:09:08.280Z,0
2023-05-22T23:14:27.865Z,0
2023-05-22T23:19:47.125Z,0
2023-05-22T23:25:05.892Z,0
2023-05-22T23:30:24.652Z,0
2023-05-22T23:35:44.191Z,0
2023-05-22T23:41:03.319Z,0
2023-05-22T23:46:22.287Z,0
2023-05-22T23:51:41.328Z,0
2023-05-22T23:57:00.280Z,0
